createdAt,value
2018-10-05T00:00:50.810Z,22.60
2018-10-05T00:01:50.792Z,21.50
2018-10-05T00:02:50.772Z,18.90
2018-10-05T00:03:50.760Z,20.50
2018-10-05T00:04:50.740Z,21.00
2018-10-05T00:05:50.722Z,22.20
2018-10-05T00:06:50.700Z,21.30
2018-10-05T00:07:50.675Z,23.00
2018-10-05T00:08:50.657Z,24.30
2018-10-05T00:09:50.704Z,20.00
2018-10-05T00:10:50.614Z,20.90
2018-10-05T00:11:50.594Z,21.90
2018-10-05T00:12:50.624Z,24.60
2018-10-05T00:13:50.557Z,24.20
2018-10-05T00:14:50.547Z,21.20
2018-10-05T00:15:50.516Z,20.90
2018-10-05T00:16:50.497Z,22.50
2018-10-05T00:17:50.480Z,23.00
2018-10-05T00:18:50.460Z,19.60
2018-10-05T00:19:50.447Z,23.10
2018-10-05T00:20:50.734Z,20.50
2018-10-05T00:21:50.398Z,22.00
2018-10-05T00:22:50.380Z,20.40
2018-10-05T00:23:50.362Z,22.50
2018-10-05T00:24:50.340Z,19.70
2018-10-05T00:25:50.319Z,23.50
2018-10-05T00:26:50.306Z,19.90
2018-10-05T00:27:50.283Z,23.10
2018-10-05T00:28:50.270Z,22.20
2018-10-05T00:29:50.239Z,24.10
2018-10-05T00:30:50.538Z,21.20
2018-10-05T00:31:50.283Z,22.60
2018-10-05T00:32:50.484Z,23.50
2018-10-05T00:33:50.192Z,23.40
2018-10-05T00:34:50.473Z,22.20
2018-10-05T00:35:50.320Z,23.10
2018-10-05T00:36:50.158Z,22.70
2018-10-05T00:37:50.867Z,21.20
2018-10-05T00:38:50.083Z,19.50
2018-10-05T00:39:50.423Z,22.70
2018-10-05T00:40:50.026Z,21.50
2018-10-05T00:41:50.328Z,23.70
2018-10-05T00:42:50.103Z,22.30
2018-10-05T00:43:49.965Z,22.30
2018-10-05T00:44:50.275Z,23.70
2018-10-05T00:46:50.229Z,21.10
2018-10-05T00:47:49.915Z,21.50
2018-10-05T00:48:49.889Z,22.50
2018-10-05T00:49:49.844Z,19.40
2018-10-05T00:50:49.825Z,21.10
2018-10-05T00:51:49.803Z,22.70
2018-10-05T00:52:49.793Z,23.80
2018-10-05T00:53:49.773Z,22.50
2018-10-05T00:54:49.746Z,21.80
2018-10-05T00:55:49.724Z,21.70
2018-10-05T00:56:49.715Z,23.70
2018-10-05T00:57:50.013Z,20.30
2018-10-05T00:58:49.671Z,21.90
2018-10-05T00:59:49.645Z,22.90
2018-10-05T01:00:49.645Z,22.40
2018-10-05T01:01:49.898Z,24.00
2018-10-05T01:02:49.608Z,22.30
2018-10-05T01:03:49.596Z,20.40
2018-10-05T01:05:49.753Z,21.50
2018-10-05T01:06:49.715Z,25.10
2018-10-05T01:07:49.798Z,23.00
2018-10-05T01:08:49.682Z,21.30
2018-10-05T01:09:49.455Z,25.50
2018-10-05T01:10:49.661Z,19.80
2018-10-05T01:11:49.635Z,20.60
2018-10-05T01:12:49.711Z,22.00
2018-10-05T01:13:49.684Z,21.10
2018-10-05T01:14:49.351Z,20.40
2018-10-05T01:15:49.326Z,21.00
2018-10-05T01:16:49.306Z,21.10
2018-10-05T01:17:49.289Z,23.50
2018-10-05T01:18:49.265Z,23.20
2018-10-05T01:19:49.247Z,20.40
2018-10-05T01:20:49.312Z,24.40
2018-10-05T01:21:49.206Z,24.40
2018-10-05T01:22:49.186Z,24.40
2018-10-05T01:23:49.165Z,19.20
2018-10-05T01:24:49.161Z,21.80
2018-10-05T01:25:49.126Z,23.50
2018-10-05T01:26:49.116Z,24.10
2018-10-05T01:27:49.087Z,22.70
2018-10-05T01:28:49.074Z,21.10
2018-10-05T01:29:49.260Z,23.00
2018-10-05T01:30:49.346Z,20.20
2018-10-05T01:31:49.325Z,20.00
2018-10-05T01:32:49.017Z,21.60
2018-10-05T01:33:49.294Z,20.80
2018-10-05T01:34:48.991Z,19.90
2018-10-05T01:35:49.240Z,17.20
2018-10-05T01:36:49.120Z,17.30
2018-10-05T01:37:49.218Z,17.60
2018-10-05T01:38:49.263Z,17.20
2018-10-05T01:39:48.883Z,24.70
2018-10-05T01:40:49.762Z,19.30
2018-10-05T01:41:49.039Z,16.80
2018-10-05T01:42:48.834Z,21.70
2018-10-05T01:43:48.782Z,18.80
2018-10-05T01:44:49.689Z,19.20
2018-10-05T01:45:48.958Z,16.90
2018-10-05T01:46:48.743Z,21.50
2018-10-05T01:47:49.322Z,21.50
2018-10-05T01:48:48.916Z,16.50
2018-10-05T01:49:49.184Z,18.80
2018-10-05T01:50:48.935Z,18.40
2018-10-05T01:51:48.608Z,17.70
2018-10-05T01:52:49.205Z,16.40
2018-10-05T01:53:48.569Z,17.80
2018-10-05T01:54:48.546Z,19.40
2018-10-05T01:56:48.561Z,20.30
2018-10-05T01:57:48.496Z,17.40
2018-10-05T01:58:48.479Z,16.90
2018-10-05T01:59:48.445Z,18.60
2018-10-05T02:00:48.672Z,17.60
2018-10-05T02:02:48.414Z,19.60
2018-10-05T02:03:48.396Z,15.40
2018-10-05T02:04:48.566Z,18.10
2018-10-05T02:05:49.068Z,17.10
2018-10-05T02:06:48.322Z,18.00
2018-10-05T02:07:48.488Z,15.90
2018-10-05T02:08:48.290Z,17.60
2018-10-05T02:09:48.241Z,17.60
2018-10-05T02:10:48.550Z,20.10
2018-10-05T02:11:48.203Z,15.90
2018-10-05T02:12:48.191Z,19.70
2018-10-05T02:14:48.478Z,17.50
2018-10-05T02:15:48.359Z,18.00
2018-10-05T02:16:48.105Z,16.70
2018-10-05T02:17:48.435Z,18.20
2018-10-05T02:18:48.296Z,15.00
2018-10-05T02:19:48.041Z,19.60
2018-10-05T02:20:48.188Z,18.50
2018-10-05T02:21:48.001Z,18.10
2018-10-05T02:22:47.991Z,18.90
2018-10-05T02:23:47.970Z,19.60
2018-10-05T02:24:47.940Z,19.80
2018-10-05T02:25:47.920Z,18.30
2018-10-05T02:26:48.000Z,23.60
2018-10-05T02:27:47.891Z,18.30
2018-10-05T02:28:47.873Z,18.60
2018-10-05T02:29:47.839Z,19.00
2018-10-05T02:30:48.148Z,16.90
2018-10-05T02:31:47.828Z,18.00
2018-10-05T02:32:47.819Z,17.60
2018-10-05T02:33:48.090Z,16.20
2018-10-05T02:34:48.056Z,20.40
2018-10-05T02:35:48.044Z,18.70
2018-10-05T02:36:48.027Z,18.70
2018-10-05T02:37:49.108Z,19.20
2018-10-05T02:38:47.968Z,19.40
2018-10-05T02:39:47.636Z,15.40
2018-10-05T02:40:47.946Z,18.50
2018-10-05T02:41:47.994Z,20.50
2018-10-05T02:42:47.971Z,18.90
2018-10-05T02:43:47.885Z,17.10
2018-10-05T02:44:47.593Z,19.70
2018-10-05T02:45:47.955Z,17.40
2018-10-05T02:46:47.515Z,18.40
2018-10-05T02:47:47.477Z,18.50
2018-10-05T02:48:48.103Z,19.50
2018-10-05T02:49:47.433Z,19.10
2018-10-05T02:50:47.423Z,18.30
2018-10-05T02:51:47.395Z,17.30
2018-10-05T02:52:47.375Z,18.20
2018-10-05T02:53:47.354Z,19.30
2018-10-05T02:54:47.333Z,16.60
2018-10-05T02:55:47.314Z,17.50
2018-10-05T02:56:47.293Z,14.70
2018-10-05T02:57:47.283Z,18.10
2018-10-05T02:58:47.252Z,21.60
2018-10-05T02:59:47.246Z,17.00
2018-10-05T03:00:48.774Z,21.00
2018-10-05T03:01:47.213Z,18.40
2018-10-05T03:02:47.382Z,15.40
2018-10-05T03:03:47.152Z,17.10
2018-10-05T03:04:47.135Z,18.40
2018-10-05T03:05:47.120Z,16.60
2018-10-05T03:06:47.100Z,17.70
2018-10-05T03:07:47.069Z,18.30
2018-10-05T03:08:47.046Z,20.50
2018-10-05T03:09:47.027Z,19.10
2018-10-05T03:10:47.008Z,17.50
2018-10-05T03:11:46.984Z,16.40
2018-10-05T03:12:46.965Z,17.10
2018-10-05T03:13:46.944Z,15.70
2018-10-05T03:14:46.923Z,14.20
2018-10-05T03:15:46.942Z,16.00
2018-10-05T03:16:46.894Z,16.90
2018-10-05T03:17:47.577Z,20.90
2018-10-05T03:18:46.863Z,20.00
2018-10-05T03:19:46.915Z,18.80
2018-10-05T03:20:46.802Z,17.80
2018-10-05T03:21:46.792Z,19.30
2018-10-05T03:22:46.760Z,22.20
2018-10-05T03:23:46.740Z,17.30
2018-10-05T03:24:46.724Z,17.60
2018-10-05T03:25:46.701Z,19.50
2018-10-05T03:26:46.679Z,19.90
2018-10-05T03:27:46.670Z,21.70
2018-10-05T03:28:46.639Z,18.80
2018-10-05T03:29:46.654Z,18.60
2018-10-05T03:30:46.608Z,17.30
2018-10-05T03:31:46.582Z,22.00
2018-10-05T03:32:46.770Z,19.70
2018-10-05T03:33:47.270Z,18.30
2018-10-05T03:34:46.675Z,20.20
2018-10-05T03:35:46.521Z,15.20
2018-10-05T03:36:46.502Z,26.10
2018-10-05T03:37:46.835Z,18.00
2018-10-05T03:38:46.431Z,19.60
2018-10-05T03:39:46.654Z,17.20
2018-10-05T03:40:46.432Z,15.80
2018-10-05T03:41:46.402Z,19.40
2018-10-05T03:42:46.381Z,17.80
2018-10-05T03:43:46.660Z,19.10
2018-10-05T03:44:46.553Z,19.50
2018-10-05T03:45:46.319Z,16.20
2018-10-05T03:46:46.268Z,18.90
2018-10-05T03:47:46.249Z,17.20
2018-10-05T03:48:46.228Z,20.30
2018-10-05T03:49:46.215Z,17.80
2018-10-05T03:50:46.188Z,16.50
2018-10-05T03:51:46.175Z,18.30
2018-10-05T03:52:46.145Z,15.10
2018-10-05T03:53:46.124Z,19.30
2018-10-05T03:54:46.834Z,16.00
2018-10-05T03:55:46.093Z,17.90
2018-10-05T03:56:46.063Z,15.80
2018-10-05T03:57:46.555Z,17.20
2018-10-05T03:58:46.022Z,18.10
2018-10-05T03:59:46.221Z,17.40
2018-10-05T04:00:46.010Z,19.10
2018-10-05T04:01:45.988Z,17.90
2018-10-05T04:02:46.160Z,19.10
2018-10-05T04:03:45.944Z,22.20
2018-10-05T04:04:45.983Z,19.00
2018-10-05T04:05:46.200Z,19.30
2018-10-05T04:06:45.863Z,20.90
2018-10-05T04:07:45.843Z,17.20
2018-10-05T04:08:46.144Z,18.10
2018-10-05T04:09:46.337Z,19.20
2018-10-05T04:10:45.785Z,20.30
2018-10-05T04:11:46.074Z,18.30
2018-10-05T04:12:45.760Z,21.10
2018-10-05T04:13:45.720Z,20.20
2018-10-05T04:14:45.728Z,22.30
2018-10-05T04:15:45.670Z,21.50
2018-10-05T04:16:45.649Z,21.40
2018-10-05T04:17:45.630Z,22.00
2018-10-05T04:18:45.610Z,22.00
2018-10-05T04:19:45.918Z,23.30
2018-10-05T04:20:46.193Z,22.00
2018-10-05T04:21:45.555Z,18.80
2018-10-05T04:22:46.162Z,21.70
2018-10-05T04:23:45.560Z,22.30
2018-10-05T04:24:45.501Z,21.40
2018-10-05T04:25:45.476Z,21.20
2018-10-05T04:26:45.557Z,20.60
2018-10-05T04:27:45.442Z,20.60
2018-10-05T04:28:46.139Z,20.10
2018-10-05T04:29:45.697Z,19.80
2018-10-05T04:30:45.409Z,22.20
2018-10-05T04:31:45.667Z,22.40
2018-10-05T04:32:45.352Z,22.40
2018-10-05T04:33:45.306Z,25.00
2018-10-05T04:34:45.321Z,21.20
2018-10-05T04:35:45.703Z,24.00
2018-10-05T04:36:45.576Z,22.80
2018-10-05T04:37:45.438Z,24.90
2018-10-05T04:38:45.527Z,23.00
2018-10-05T04:39:45.216Z,24.00
2018-10-05T04:40:45.170Z,24.60
2018-10-05T04:41:45.672Z,23.30
2018-10-05T04:42:45.425Z,22.50
2018-10-05T04:43:45.333Z,21.30
2018-10-05T04:44:45.104Z,19.80
2018-10-05T04:45:45.086Z,24.20
2018-10-05T04:46:45.031Z,21.70
2018-10-05T04:47:45.012Z,22.10
2018-10-05T04:48:44.990Z,23.20
2018-10-05T04:49:45.095Z,23.70
2018-10-05T04:50:44.955Z,21.50
2018-10-05T04:51:44.926Z,26.50
2018-10-05T04:52:44.907Z,21.90
2018-10-05T04:53:45.025Z,21.90
2018-10-05T04:54:44.866Z,23.50
2018-10-05T04:55:44.843Z,21.00
2018-10-05T04:56:44.845Z,22.70
2018-10-05T04:57:44.805Z,20.40
2018-10-05T04:58:44.787Z,25.60
2018-10-05T04:59:44.776Z,21.60
2018-10-05T05:00:44.739Z,23.00
2018-10-05T05:01:44.723Z,20.20
2018-10-05T05:02:44.702Z,23.80
2018-10-05T05:03:44.676Z,27.20
2018-10-05T05:04:44.656Z,23.40
2018-10-05T05:05:44.639Z,21.90
2018-10-05T05:06:44.613Z,23.30
2018-10-05T05:07:44.593Z,23.20
2018-10-05T05:08:44.571Z,25.10
2018-10-05T05:09:44.552Z,22.90
2018-10-05T05:10:44.538Z,21.80
2018-10-05T05:11:44.528Z,22.30
2018-10-05T05:12:44.488Z,26.60
2018-10-05T05:13:44.478Z,24.10
2018-10-05T05:14:44.445Z,21.30
2018-10-05T05:15:44.453Z,21.50
2018-10-05T05:16:44.405Z,24.20
2018-10-05T05:17:44.381Z,26.50
2018-10-05T05:18:44.469Z,22.00
2018-10-05T05:19:44.415Z,20.20
2018-10-05T05:20:44.322Z,25.50
2018-10-05T05:21:44.301Z,19.90
2018-10-05T05:22:44.277Z,21.10
2018-10-05T05:23:44.256Z,24.40
2018-10-05T05:24:44.238Z,22.90
2018-10-05T05:25:44.213Z,20.80
2018-10-05T05:26:44.194Z,23.10
2018-10-05T05:27:44.177Z,24.20
2018-10-05T05:28:44.160Z,21.80
2018-10-05T05:29:44.146Z,25.90
2018-10-05T05:30:44.118Z,22.50
2018-10-05T05:31:44.088Z,23.20
2018-10-05T05:32:44.066Z,22.60
2018-10-05T05:33:44.221Z,21.00
2018-10-05T05:34:44.023Z,19.10
2018-10-05T05:35:44.003Z,23.40
2018-10-05T05:36:43.983Z,21.80
2018-10-05T05:37:43.961Z,23.20
2018-10-05T05:38:43.941Z,21.90
2018-10-05T05:39:43.931Z,22.10
2018-10-05T05:40:43.900Z,19.20
2018-10-05T05:41:43.890Z,21.10
2018-10-05T05:42:43.861Z,24.50
2018-10-05T05:43:43.835Z,19.70
2018-10-05T05:44:43.814Z,26.00
2018-10-05T05:45:43.795Z,20.70
2018-10-05T05:46:43.807Z,25.00
2018-10-05T05:47:43.754Z,22.60
2018-10-05T05:48:43.936Z,24.30
2018-10-05T05:49:43.709Z,23.00
2018-10-05T05:50:43.690Z,19.90
2018-10-05T05:51:43.675Z,21.30
2018-10-05T05:52:43.648Z,20.80
2018-10-05T05:53:43.645Z,22.00
2018-10-05T05:54:43.708Z,22.10
2018-10-05T05:55:43.589Z,20.20
2018-10-05T05:56:43.572Z,21.60
2018-10-05T05:57:43.543Z,19.60
2018-10-05T05:58:43.522Z,22.20
2018-10-05T05:59:43.501Z,22.70
2018-10-05T06:00:43.484Z,18.00
2018-10-05T06:01:43.465Z,18.30
2018-10-05T06:02:43.443Z,22.80
2018-10-05T06:03:43.417Z,23.50
2018-10-05T06:04:43.398Z,21.20
2018-10-05T06:05:43.376Z,21.80
2018-10-05T06:06:43.358Z,20.70
2018-10-05T06:07:43.338Z,22.70
2018-10-05T06:08:43.631Z,19.30
2018-10-05T06:09:43.292Z,22.90
2018-10-05T06:10:43.273Z,22.50
2018-10-05T06:11:43.569Z,21.70
2018-10-05T06:12:43.229Z,20.80
2018-10-05T06:13:43.322Z,20.00
2018-10-05T06:14:43.187Z,20.30
2018-10-05T06:15:43.166Z,18.80
2018-10-05T06:16:43.167Z,22.80
2018-10-05T06:17:43.136Z,22.50
2018-10-05T06:18:43.106Z,19.50
2018-10-05T06:19:43.084Z,23.90
2018-10-05T06:20:43.068Z,19.00
2018-10-05T06:21:43.291Z,22.40
2018-10-05T06:22:43.022Z,22.40
2018-10-05T06:23:43.002Z,21.20
2018-10-05T06:24:42.988Z,19.40
2018-10-05T06:25:42.962Z,20.70
2018-10-05T06:26:42.939Z,22.80
2018-10-05T06:27:42.917Z,19.70
2018-10-05T06:28:42.901Z,20.70
2018-10-05T06:29:42.876Z,20.60
2018-10-05T06:30:42.952Z,20.70
2018-10-05T06:31:42.837Z,19.80
2018-10-05T06:32:42.815Z,24.00
2018-10-05T06:33:42.795Z,18.60
2018-10-05T06:34:42.777Z,20.50
2018-10-05T06:35:42.766Z,24.80
2018-10-05T06:36:42.732Z,20.50
2018-10-05T06:37:42.710Z,19.80
2018-10-05T06:38:42.694Z,19.50
2018-10-05T06:39:42.669Z,22.20
2018-10-05T06:40:42.650Z,18.60
2018-10-05T06:41:42.636Z,20.70
2018-10-05T06:42:42.620Z,20.10
2018-10-05T06:43:42.595Z,21.80
2018-10-05T06:44:42.565Z,18.30
2018-10-05T06:45:42.546Z,22.90
2018-10-05T06:46:42.526Z,22.70
2018-10-05T06:47:42.507Z,20.80
2018-10-05T06:48:42.501Z,22.40
2018-10-05T06:49:42.466Z,25.20
2018-10-05T06:50:42.445Z,20.70
2018-10-05T06:51:42.428Z,20.30
2018-10-05T06:52:42.429Z,23.50
2018-10-05T06:53:42.396Z,20.10
2018-10-05T06:54:42.374Z,18.90
2018-10-05T06:55:42.345Z,20.30
2018-10-05T06:56:42.321Z,22.90
2018-10-05T06:57:42.300Z,21.80
2018-10-05T06:58:42.282Z,21.40
2018-10-05T06:59:42.262Z,19.40
2018-10-05T07:00:42.244Z,21.90
2018-10-05T07:01:42.281Z,18.30
2018-10-05T07:02:42.198Z,19.20
2018-10-05T07:03:42.184Z,21.10
2018-10-05T07:04:42.170Z,20.10
2018-10-05T07:05:42.143Z,18.50
2018-10-05T07:06:42.136Z,20.40
2018-10-05T07:07:42.134Z,19.80
2018-10-05T07:08:42.074Z,20.40
2018-10-05T07:09:42.060Z,19.40
2018-10-05T07:10:42.032Z,20.90
2018-10-05T07:11:42.017Z,19.30
2018-10-05T07:12:42.006Z,19.10
2018-10-05T07:13:41.974Z,19.10
2018-10-05T07:14:41.969Z,26.40
2018-10-05T07:15:41.935Z,22.10
2018-10-05T07:16:41.972Z,21.60
2018-10-05T07:17:41.893Z,19.90
2018-10-05T07:18:41.870Z,21.20
2018-10-05T07:19:41.856Z,19.60
2018-10-05T07:20:41.829Z,18.10
2018-10-05T07:21:41.812Z,20.70
2018-10-05T07:22:41.797Z,22.70
2018-10-05T07:23:41.779Z,19.80
2018-10-05T07:24:41.748Z,18.90
2018-10-05T07:25:41.729Z,18.70
2018-10-05T07:26:41.712Z,18.70
2018-10-05T07:27:41.692Z,16.40
2018-10-05T07:28:41.681Z,17.90
2018-10-05T07:29:41.649Z,18.60
2018-10-05T07:30:41.627Z,18.50
2018-10-05T07:31:41.611Z,17.30
2018-10-05T07:32:41.590Z,17.90
2018-10-05T07:33:41.581Z,19.00
2018-10-05T07:34:41.546Z,16.20
2018-10-05T07:35:41.528Z,15.50
2018-10-05T07:36:41.511Z,19.40
2018-10-05T07:37:41.490Z,20.00
2018-10-05T07:38:41.516Z,18.40
2018-10-05T07:39:41.452Z,18.80
2018-10-05T07:40:41.424Z,17.70
2018-10-05T07:41:41.416Z,14.70
2018-10-05T07:42:41.387Z,18.70
2018-10-05T07:43:41.364Z,18.30
2018-10-05T07:44:41.344Z,15.70
2018-10-05T07:45:41.326Z,15.70
2018-10-05T07:46:41.307Z,15.90
2018-10-05T07:47:41.289Z,19.80
2018-10-05T07:48:41.275Z,17.10
2018-10-05T07:49:41.254Z,22.10
2018-10-05T07:50:41.224Z,18.10
2018-10-05T07:51:41.242Z,14.40
2018-10-05T07:52:41.194Z,17.60
2018-10-05T07:53:41.168Z,16.90
2018-10-05T07:54:41.382Z,19.20
2018-10-05T07:55:41.129Z,15.40
2018-10-05T07:56:41.104Z,17.20
2018-10-05T07:57:41.289Z,17.20
2018-10-05T07:58:41.068Z,17.10
2018-10-05T07:59:41.045Z,17.30
2018-10-05T08:00:41.033Z,15.80
2018-10-05T08:01:41.009Z,15.30
2018-10-05T08:02:41.025Z,14.20
2018-10-05T08:03:40.975Z,18.00
2018-10-05T08:04:40.947Z,18.10
2018-10-05T08:05:40.927Z,16.60
2018-10-05T08:06:40.916Z,16.80
2018-10-05T08:07:40.888Z,15.70
2018-10-05T08:08:40.971Z,15.50
2018-10-05T08:09:41.096Z,17.70
2018-10-05T08:10:40.836Z,15.90
2018-10-05T08:11:40.811Z,14.80
2018-10-05T08:12:40.798Z,15.20
2018-10-05T08:13:40.771Z,16.50
2018-10-05T08:14:40.750Z,20.90
2018-10-05T08:15:40.732Z,19.00
2018-10-05T08:16:40.712Z,13.70
2018-10-05T08:17:40.691Z,12.90
2018-10-05T08:18:40.675Z,17.80
2018-10-05T08:19:40.664Z,17.30
2018-10-05T08:20:40.632Z,17.20
2018-10-05T08:21:40.648Z,14.70
2018-10-05T08:22:40.628Z,18.10
2018-10-05T08:23:40.576Z,12.80
2018-10-05T08:24:40.563Z,16.00
2018-10-05T08:25:40.548Z,19.50
2018-10-05T08:26:40.518Z,15.80
2018-10-05T08:27:40.557Z,16.80
2018-10-05T08:28:40.482Z,16.30
2018-10-05T08:29:40.463Z,18.80
2018-10-05T08:30:40.456Z,20.90
2018-10-05T08:31:40.427Z,16.00
2018-10-05T08:32:40.406Z,15.80
2018-10-05T08:33:40.397Z,16.60
2018-10-05T08:34:40.459Z,17.30
2018-10-05T08:35:40.349Z,16.20
2018-10-05T08:36:40.337Z,15.10
2018-10-05T08:37:40.314Z,14.20
2018-10-05T08:38:40.293Z,16.10
2018-10-05T08:39:40.337Z,16.30
2018-10-05T08:40:40.268Z,17.30
2018-10-05T08:41:40.239Z,17.70
2018-10-05T08:42:40.237Z,13.30
2018-10-05T08:43:40.212Z,16.00
2018-10-05T08:44:40.194Z,13.80
2018-10-05T08:45:40.168Z,17.30
2018-10-05T08:46:40.149Z,17.00
2018-10-05T08:47:40.132Z,12.90
2018-10-05T08:48:40.113Z,12.30
2018-10-05T08:49:40.118Z,17.10
2018-10-05T08:50:40.076Z,15.10
2018-10-05T08:51:40.107Z,15.70
2018-10-05T08:52:40.053Z,13.00
2018-10-05T08:53:40.026Z,12.20
2018-10-05T08:54:40.008Z,20.20
2018-10-05T08:55:39.998Z,18.90
2018-10-05T08:56:39.969Z,13.50
2018-10-05T08:57:39.955Z,13.60
2018-10-05T08:58:39.953Z,14.50
2018-10-05T08:59:39.919Z,16.50
2018-10-05T09:00:39.906Z,16.80
2018-10-05T09:01:39.907Z,13.60
2018-10-05T09:02:39.876Z,16.40
2018-10-05T09:03:39.858Z,16.30
2018-10-05T09:04:39.846Z,14.30
2018-10-05T09:05:39.841Z,15.90
2018-10-05T09:06:39.809Z,12.80
2018-10-05T09:07:39.806Z,17.00
2018-10-05T09:08:39.778Z,15.60
2018-10-05T09:09:39.764Z,17.90
2018-10-05T09:10:39.748Z,18.10
2018-10-05T09:11:39.735Z,16.20
2018-10-05T09:12:39.724Z,17.10
2018-10-05T09:13:39.758Z,16.00
2018-10-05T09:14:39.692Z,14.40
2018-10-05T09:15:39.679Z,16.70
2018-10-05T09:16:39.661Z,19.80
2018-10-05T09:17:39.715Z,17.40
2018-10-05T09:18:39.641Z,13.10
2018-10-05T09:19:39.627Z,15.50
2018-10-05T09:20:39.612Z,14.50
2018-10-05T09:21:39.596Z,15.00
2018-10-05T09:22:39.582Z,13.80
2018-10-05T09:23:39.567Z,14.40
2018-10-05T09:24:39.554Z,18.20
2018-10-05T09:25:39.547Z,16.30
2018-10-05T09:26:39.524Z,12.10
2018-10-05T09:27:39.513Z,14.40
2018-10-05T09:28:39.500Z,13.40
2018-10-05T09:29:39.492Z,13.30
2018-10-05T09:30:39.493Z,13.70
2018-10-05T09:31:39.462Z,13.80
2018-10-05T09:32:39.498Z,14.50
2018-10-05T09:33:39.431Z,14.80
2018-10-05T09:34:39.428Z,13.20
2018-10-05T09:35:39.409Z,10.40
2018-10-05T09:36:39.393Z,15.90
2018-10-05T09:37:39.386Z,15.70
2018-10-05T09:38:39.379Z,16.00
2018-10-05T09:39:39.365Z,11.70
2018-10-05T09:40:39.444Z,18.70
2018-10-05T09:41:39.324Z,12.60
2018-10-05T09:42:39.310Z,15.30
2018-10-05T09:43:39.317Z,12.90
2018-10-05T09:44:39.298Z,16.00
2018-10-05T09:45:39.266Z,13.60
2018-10-05T09:46:39.256Z,12.90
2018-10-05T09:47:39.240Z,13.20
2018-10-05T09:48:39.230Z,11.40
2018-10-05T09:49:39.218Z,13.40
2018-10-05T09:53:31.634Z,16.70
2018-10-05T09:54:32.817Z,15.80
2018-10-05T09:55:31.593Z,15.00
2018-10-05T09:56:35.010Z,19.10
2018-10-05T09:57:31.569Z,16.10
2018-10-05T09:58:31.570Z,13.70
2018-10-05T09:59:31.552Z,16.20
2018-10-05T10:00:31.539Z,18.00
2018-10-05T10:01:31.527Z,13.30
2018-10-05T10:02:31.523Z,13.20
2018-10-05T10:03:34.237Z,14.30
2018-10-05T10:04:31.499Z,14.60
2018-10-05T10:05:31.503Z,14.40
2018-10-05T10:06:31.487Z,12.20
2018-10-05T10:07:31.469Z,16.10
2018-10-05T10:08:31.538Z,18.10
2018-10-05T10:09:31.449Z,16.50
2018-10-05T10:10:31.439Z,17.80
2018-10-05T10:11:31.431Z,16.30
2018-10-05T10:12:31.426Z,15.40
2018-10-05T10:13:32.017Z,15.70
2018-10-05T10:14:31.411Z,15.50
2018-10-05T10:15:31.398Z,12.50
2018-10-05T10:16:32.201Z,14.50
2018-10-05T10:18:34.008Z,14.40
2018-10-05T10:19:31.367Z,18.80
2018-10-05T10:20:31.345Z,14.30
2018-10-05T10:21:31.343Z,17.60
2018-10-05T10:22:31.387Z,16.20
2018-10-05T10:23:31.321Z,13.50
2018-10-05T10:24:31.308Z,13.20
2018-10-05T10:25:31.308Z,15.60
2018-10-05T10:26:31.289Z,14.20
2018-10-05T10:27:31.335Z,16.90
2018-10-05T10:28:31.393Z,12.30
2018-10-05T10:29:31.519Z,18.10
2018-10-05T10:30:31.259Z,15.70
2018-10-05T10:31:31.250Z,18.30
2018-10-05T10:32:31.233Z,21.10
2018-10-05T10:33:31.322Z,14.20
2018-10-05T10:34:31.277Z,12.50
2018-10-05T10:35:31.214Z,12.60
2018-10-05T10:36:32.685Z,14.20
2018-10-05T10:37:31.186Z,11.90
2018-10-05T10:39:15.113Z,15.70
2018-10-05T10:40:15.095Z,14.50
2018-10-05T10:41:15.093Z,13.10
2018-10-05T10:42:15.080Z,11.40
2018-10-05T10:43:15.066Z,14.60
2018-10-05T10:44:15.060Z,14.50
2018-10-05T10:45:15.049Z,12.30
2018-10-05T10:46:17.661Z,14.70
2018-10-05T10:47:16.244Z,16.40
2018-10-05T10:48:15.085Z,15.70
2018-10-05T10:49:15.018Z,14.60
2018-10-05T10:50:15.161Z,16.50
2018-10-05T10:51:14.996Z,14.80
2018-10-05T10:52:14.993Z,15.10
2018-10-05T10:53:14.990Z,12.70
2018-10-05T10:54:15.028Z,16.10
2018-10-05T10:55:14.968Z,10.00
2018-10-05T10:56:15.062Z,12.70
2018-10-05T10:57:14.949Z,12.40
2018-10-05T10:58:14.931Z,16.50
2018-10-05T10:59:14.920Z,11.30
2018-10-05T11:00:14.920Z,14.10
2018-10-05T11:01:14.905Z,13.80
2018-10-05T11:02:14.894Z,11.20
2018-10-05T11:03:14.963Z,13.90
2018-10-05T11:04:14.893Z,11.40
2018-10-05T11:05:14.868Z,11.90
2018-10-05T11:06:15.027Z,11.00
2018-10-05T11:07:14.856Z,15.60
2018-10-05T11:08:14.849Z,13.70
2018-10-05T11:09:14.830Z,15.50
2018-10-05T11:10:14.821Z,13.60
2018-10-05T11:11:14.917Z,14.80
2018-10-05T11:12:14.806Z,12.40
2018-10-05T11:13:14.828Z,11.00
2018-10-05T11:14:14.784Z,14.90
2018-10-05T11:15:14.780Z,12.10
2018-10-05T11:16:14.764Z,12.80
2018-10-05T11:17:14.759Z,14.00
2018-10-05T11:18:14.761Z,13.60
2018-10-05T11:19:14.738Z,9.70
2018-10-05T11:20:14.725Z,10.60
2018-10-05T11:21:14.720Z,12.50
2018-10-05T11:22:14.707Z,12.00
2018-10-05T11:23:14.763Z,16.90
2018-10-05T11:24:14.687Z,10.10
2018-10-05T11:25:14.677Z,14.40
2018-10-05T11:26:14.669Z,12.20
2018-10-05T11:27:14.668Z,15.10
2018-10-05T11:28:14.653Z,16.20
2018-10-05T11:29:14.656Z,12.00
2018-10-05T11:30:14.636Z,10.80
2018-10-05T11:31:14.634Z,13.40
2018-10-05T11:32:14.616Z,13.80
2018-10-05T11:33:14.600Z,10.50
2018-10-05T11:34:14.605Z,9.90
2018-10-05T11:35:14.577Z,12.40
2018-10-05T11:36:14.566Z,12.30
2018-10-05T11:37:14.563Z,9.70
2018-10-05T11:38:14.545Z,11.60
2018-10-05T11:39:14.543Z,14.20
2018-10-05T11:40:14.524Z,12.70
2018-10-05T11:41:14.515Z,11.70
2018-10-05T11:42:14.507Z,15.20
2018-10-05T11:43:14.496Z,10.70
2018-10-05T11:44:14.482Z,10.60
2018-10-05T11:45:14.471Z,11.90
2018-10-05T11:46:14.506Z,10.70
2018-10-05T11:47:14.458Z,11.10
2018-10-05T11:48:14.443Z,12.40
2018-10-05T11:49:17.053Z,12.60
2018-10-05T11:50:14.417Z,8.00
2018-10-05T11:51:14.422Z,10.20
2018-10-05T11:52:14.459Z,11.80
2018-10-05T11:53:14.384Z,14.50
2018-10-05T11:54:14.383Z,10.30
2018-10-05T11:55:14.365Z,9.10
2018-10-05T11:56:14.351Z,11.50
2018-10-05T11:57:14.343Z,8.80
2018-10-05T11:58:14.327Z,9.50
2018-10-05T11:59:14.415Z,12.80
2018-10-05T12:00:14.302Z,12.10
2018-10-05T12:01:14.296Z,13.40
2018-10-05T12:02:14.382Z,10.40
2018-10-05T12:03:14.270Z,14.40
2018-10-05T12:04:14.256Z,10.00
2018-10-05T12:05:14.338Z,9.90
2018-10-05T12:06:14.249Z,11.60
2018-10-05T12:07:14.223Z,17.80
2018-10-05T12:08:14.220Z,9.00
2018-10-05T12:09:14.196Z,11.70
2018-10-05T12:10:14.194Z,9.50
2018-10-05T12:11:14.171Z,11.90
2018-10-05T12:12:14.172Z,12.30
2018-10-05T12:13:14.150Z,10.50
2018-10-05T12:14:14.143Z,11.60
2018-10-05T12:15:14.143Z,9.70
2018-10-05T12:16:14.132Z,11.50
2018-10-05T12:17:14.095Z,12.60
2018-10-05T12:18:14.082Z,14.10
2018-10-05T12:19:14.069Z,12.00
2018-10-05T12:20:14.062Z,11.70
2018-10-05T12:21:14.053Z,11.20
2018-10-05T12:22:14.030Z,10.70
2018-10-05T12:23:14.016Z,11.80
2018-10-05T12:24:14.021Z,11.90
2018-10-05T12:25:13.999Z,15.40
2018-10-05T12:26:14.082Z,12.90
2018-10-05T12:27:13.966Z,10.60
2018-10-05T12:28:13.950Z,10.50
2018-10-05T12:29:14.052Z,13.30
2018-10-05T12:30:13.950Z,13.10
2018-10-05T12:31:13.911Z,17.90
2018-10-05T12:32:13.899Z,11.50
2018-10-05T12:33:13.954Z,11.60
2018-10-05T12:34:13.876Z,15.10
2018-10-05T12:35:13.867Z,12.00
2018-10-05T12:36:13.843Z,12.90
2018-10-05T12:37:13.918Z,11.50
2018-10-05T12:38:13.834Z,12.90
2018-10-05T12:39:13.810Z,10.80
2018-10-05T12:40:13.805Z,12.40
2018-10-05T12:41:13.789Z,8.40
2018-10-05T12:42:13.837Z,10.30
2018-10-05T12:43:13.760Z,10.00
2018-10-05T12:44:13.740Z,13.10
2018-10-05T12:45:13.804Z,11.20
2018-10-05T12:46:13.711Z,11.10
2018-10-05T12:47:13.701Z,10.90
2018-10-05T12:48:13.690Z,13.00
2018-10-05T12:49:13.679Z,13.00
2018-10-05T12:50:13.750Z,10.30
2018-10-05T12:51:13.642Z,9.30
2018-10-05T12:52:13.634Z,12.80
2018-10-05T12:53:13.619Z,10.60
2018-10-05T12:54:13.612Z,12.40
2018-10-05T12:55:13.594Z,12.80
2018-10-05T12:56:13.581Z,8.80
2018-10-05T12:57:13.572Z,12.00
2018-10-05T12:58:13.599Z,12.60
2018-10-05T12:59:13.540Z,11.50
2018-10-05T13:00:13.526Z,9.60
2018-10-05T13:01:13.509Z,12.00
2018-10-05T13:02:13.502Z,10.90
2018-10-05T13:03:13.501Z,9.80